Flight Track Log - Related Links

Times and Time Zones

All times are in EDT time to prevent confusion due to time zone crossing. See the EGF4432 flight status page for this flight to view local times or setup timezone preferences in your user account.

Time Position Orientation Groundspeed Altitude Reporting Facility
EDT Latitude Longitude Course Direction KTS MPH feet Rate Location/Type
Tue 05:44:10 PM 38.8833 -77.0500 270° West 174 200 1,400  Level Potomac TRACON
Tue 05:45:10 PM 38.9167 -77.1000 311° West 237 273 3,600 2,050 Climbing Potomac TRACON
Tue 05:46:00 PM 38.8500 -77.4883 270° West  Level FlightAware Approximate
Tue 05:46:10 PM 38.9833 -77.1667 322° Northwest 296 341 5,500  Level Potomac TRACON
Tue 05:47:00 PM 38.8500 -77.6399 270° West  Level FlightAware Approximate
Tue 05:47:46 PM 38.9886 -77.3089 273° West 269 310 9,600  Level Washington Center
Tue 05:48:00 PM 38.8501 -77.7916 270° West  Level FlightAware Approximate
Tue 05:48:47 PM 38.9478 -77.4067 242° Southwest 278 320 11,300  Level Washington Center
Tue 05:49:00 PM 38.8503 -77.9432 270° West  Level FlightAware Approximate
Tue 05:49:44 PM 38.9064 -77.5122 243° Southwest 306 352 13,000  Level Washington Center
Tue 05:50:44 PM 38.8917 -77.6453 262° West 364 419 14,300 1,537 Climbing Washington Center
Tue 05:51:45 PM 38.8828 -77.7997 266° West 395 455 16,100 1,537 Climbing Washington Center
Tue 05:52:45 PM 38.8736 -77.9461 265° West 410 472 17,400 1,438 Climbing Washington Center
Tue 05:53:46 PM 38.8625 -78.0897 264° West 415 478 19,000 1,563 Climbing Washington Center
Tue 05:54:44 PM 38.8531 -78.2386 265° West 415 478 20,500 1,613 Climbing Washington Center
Tue 05:55:45 PM 38.8517 -78.3933 269° West 425 489 22,200 1,835 Climbing Washington Center
Tue 05:56:45 PM 38.8522 -78.5397 270° West 425 489 24,200 2,033 Climbing Washington Center
Tue 05:57:46 PM 38.8486 -78.6889 268° West 419 482 26,300 1,412 Climbing Washington Center
Tue 05:58:44 PM 38.8489 -78.8356 270° West 419 482 27,000 353 Climbing Washington Center
Tue 05:59:45 PM 38.8464 -78.9956 269° West 432 497 27,000 967 Level Washington Center
Tue 06:01:44 PM 38.8222 -79.3247 265° West 462 532 29,900 1,609 Climbing Washington Center
Tue 06:02:44 PM 38.7944 -79.4725 256° West 456 525 31,800 1,091 Climbing Washington Center
Tue 06:03:45 PM 38.7689 -79.6175 257° West 449 517 32,100 443 Climbing Washington Center
Tue 06:04:46 PM 38.7361 -79.7808 256° West 463 533 32,700 740 Climbing Washington Center
Tue 06:06:19 PM 38.6853 -80.0525 257° West 483 556 34,000 503 Climbing Indianapolis Center
Tue 06:07:21 PM 38.6533 -80.2167 256° West 477 549 34,000  Level Indianapolis Center
Tue 06:08:23 PM 38.6228 -80.3794 257° West 472 543 34,000  Level Indianapolis Center
Tue 06:09:25 PM 38.5919 -80.5422 256° West 470 541 34,000  Level Indianapolis Center
Tue 06:10:27 PM 38.5614 -80.7075 257° West 477 549 34,000  Level Indianapolis Center
Tue 06:11:29 PM 38.5225 -80.9072 256° West 480 552 34,000  Level Indianapolis Center
Tue 06:12:31 PM 38.4892 -81.0742 256° West 481 554 34,000  Level Indianapolis Center
Tue 06:13:33 PM 38.4567 -81.2397 256° West 478 550 34,000  Level Indianapolis Center
Tue 06:14:35 PM 38.4231 -81.4056 256° West 476 548 34,000  Level Indianapolis Center
Tue 06:15:37 PM 38.3911 -81.5711 256° West 475 547 34,000  Level Indianapolis Center
Tue 06:16:39 PM 38.3581 -81.7350 256° West 473 544 34,000  Level Indianapolis Center
Tue 06:17:41 PM 38.3158 -81.8956 252° West 474 545 34,000  Level Indianapolis Center
Tue 06:18:43 PM 38.2703 -82.0544 250° West 477 549 34,000  Level Indianapolis Center
Tue 06:19:45 PM 38.2256 -82.2133 250° West 476 548 34,000  Level Indianapolis Center
Tue 06:20:48 PM 38.1714 -82.4028 250° West 475 547 34,000  Level Indianapolis Center
Tue 06:21:50 PM 38.1267 -82.5597 250° West 473 544 34,000  Level Indianapolis Center
Tue 06:22:52 PM 38.0681 -82.7089 244° Southwest 477 549 34,000  Level Indianapolis Center
Tue 06:23:54 PM 37.9992 -82.8544 239° Southwest 482 555 34,000  Level Indianapolis Center
Tue 06:24:56 PM 37.9300 -82.9989 239° Southwest 481 554 34,000  Level Indianapolis Center
Tue 06:25:58 PM 37.8497 -83.1675 239° Southwest 479 551 34,000  Level Indianapolis Center
Tue 06:27:01 PM 37.7803 -83.3139 239° Southwest 484 557 34,000  Level Indianapolis Center
Tue 06:28:02 PM 37.7111 -83.4575 239° Southwest 483 556 34,000  Level Indianapolis Center
Tue 06:29:04 PM 37.6411 -83.6028 239° Southwest 484 557 34,000  Level Indianapolis Center
Tue 06:30:06 PM 37.5725 -83.7469 239° Southwest 482 555 34,000 -290 Level Indianapolis Center
Tue 06:31:08 PM 37.4908 -83.9156 239° Southwest 485 558 33,400 -677 Descending Indianapolis Center
Tue 06:32:10 PM 37.4225 -84.0561 239° Southwest 474 545 32,600 -774 Descending Indianapolis Center
Tue 06:33:12 PM 37.3522 -84.1969 238° Southwest 475 547 31,800 -774 Descending Indianapolis Center
Tue 06:34:14 PM 37.2819 -84.3400 238° Southwest 480 552 31,000 -768 Descending Indianapolis Center
Tue 06:35:17 PM 37.2125 -84.4825 239° Southwest 481 554 30,200 -484 Descending Indianapolis Center
Tue 06:36:18 PM 37.1300 -84.6497 238° Southwest 481 554 30,000 -98 Descending Indianapolis Center
Tue 06:37:20 PM 37.0589 -84.7908 238° Southwest 479 551 30,000  Level Indianapolis Center
Tue 06:38:22 PM 36.9925 -84.9233 238° Southwest 472 543 30,000 -290 Level Indianapolis Center
Tue 06:39:24 PM 36.9211 -85.0650 238° Southwest 480 552 29,400 -2,226 Descending Indianapolis Center
Tue 06:40:26 PM 36.8372 -85.2314 238° Southwest 475 547 25,400 -3,387 Descending Indianapolis Center
Tue 06:41:28 PM 36.7717 -85.3586 237° Southwest 443 510 22,400 -2,267 Descending Indianapolis Center
Tue 06:41:56 PM 36.7456 -85.4061 236° Southwest 465 535 22,000 -273 Descending Memphis Center
Tue 06:42:56 PM 36.6903 -85.5364 242° Southwest 413 475 22,000  Level Memphis Center
Tue 06:43:57 PM 36.6397 -85.6350 237° Southwest 392 451 22,000 -843 Level Memphis Center
Tue 06:44:57 PM 36.5856 -85.7467 239° Southwest 392 451 20,300 -2,017 Descending Memphis Center
Tue 06:45:56 PM 36.5356 -85.8556 240° Southwest 381 438 18,000 -2,250 Descending Memphis Center
Tue 06:46:57 PM 36.4869 -85.9589 240° Southwest 360 414 15,800 -2,231 Descending Memphis Center
Tue 06:47:57 PM 36.4406 -86.0594 240° Southwest 347 399 13,500 -2,269 Descending Memphis Center
Tue 06:48:56 PM 36.3939 -86.1547 239° Southwest 341 392 11,300 -1,664 Descending Memphis Center
Tue 06:49:56 PM 36.3489 -86.2447 238° Southwest 320 368 10,200 -1,400 Descending Memphis Center
Tue 06:50:56 PM 36.3039 -86.3369 239° Southwest 299 344 8,500 -1,800 Descending Memphis Center
Tue 06:51:56 PM 36.2650 -86.4186 239° Southwest 289 333 6,600 -1,300 Descending Memphis Center
Tue 06:52:56 PM 36.2297 -86.4925 239° Southwest 271 312 5,900 -298 Descending Memphis Center
Tue 06:53:57 PM 36.1767 -86.5361 214° Southwest 228 262 6,000 -446 Climbing Memphis Center
Tue 06:54:57 PM 36.1128 -86.5597 197° South 228 262 5,000 -1,100 Descending Memphis Center
Tue 06:55:57 PM 36.0531 -86.5831 198° South 234 269 3,800 -1,200 Descending Memphis Center

Login

Don't have an account? Register now (free) for customized features, flight alerts, and more!